Time;durP1;ratioP1;P1;durP2;ratioP2;P2;SDS_P1;SDS_P2;PMS_P1;PMS_P2;Temp;Humidity;BMP_temperature;BMP_pressure;BME280_temperature;BME280_humidity;BME280_pressure;Samples;Min_cycle;Max_cycle;Signal;HPM_P1;HPM_P2
2023/03/31 00:02:12;;;;;;;;;;;;;;;19.77;42.35;100303.59;5052940;28;19917;-73
2023/03/31 00:04:44;;;;;;;;;;;;;;;19.77;42.25;100300.91;5055659;28;19920;-74
2023/03/31 00:07:10;;;;;;;;;;;;;;;19.75;42.12;100302.94;5055090;28;20362;-73
2023/03/31 00:09:36;;;;;;;;;;;;;;;19.74;42.34;100291.31;5058123;28;19940;-74
2023/03/31 00:12:01;;;;;;;;;;;;;;;19.73;42.34;100287.78;5052922;28;19955;-73
2023/03/31 00:14:26;;;;;;;;;;;;;;;19.72;42.54;100272.63;5056103;28;20480;-75
2023/03/31 00:16:51;;;;;;;;;;;;;;;19.71;42.53;100267.44;5053642;28;19909;-74
2023/03/31 00:19:17;;;;;;;;;;;;;;;19.70;42.56;100271.13;5065455;28;19913;-74
2023/03/31 00:21:42;;;;;;;;;;;;;;;19.70;42.16;100263.03;5054135;28;20334;-74
2023/03/31 00:24:08;;;;;;;;;;;;;;;19.69;42.30;100253.28;5058388;28;20405;-75
2023/03/31 00:26:34;;;;;;;;;;;;;;;19.67;42.38;100260.75;5053038;28;19996;-75
2023/03/31 00:29:00;;;;;;;;;;;;;;;19.66;42.45;100249.09;5066518;28;20312;-74
2023/03/31 00:31:26;;;;;;;;;;;;;;;19.66;42.54;100237.47;5055213;28;19913;-75
2023/03/31 00:33:51;;;;;;;;;;;;;;;19.64;42.40;100240.38;5074878;28;19919;-74
2023/03/31 00:36:20;;;;;;;;;;;;;;;19.64;42.31;100231.44;5069433;28;19940;-75
2023/03/31 00:38:46;;;;;;;;;;;;;;;19.63;42.58;100229.78;5063233;28;19919;-75
2023/03/31 00:41:12;;;;;;;;;;;;;;;19.62;42.58;100223.53;5057400;28;19924;-74
2023/03/31 00:43:37;;;;;;;;;;;;;;;19.60;42.61;100224.72;5073219;28;19909;-75
2023/03/31 00:46:16;;;;;;;;;;;;;;;19.59;42.68;100218.50;5068354;28;19909;-74
2023/03/31 00:49:00;;;;;;;;;;;;;;;19.59;42.65;100213.09;5052128;28;19945;-75
2023/03/31 00:51:26;;;;;;;;;;;;;;;19.58;42.37;100211.44;5061959;28;19919;-74
2023/03/31 00:54:03;;;;;;;;;;;;;;;19.57;42.57;100201.66;5059785;28;20003;-74
2023/03/31 00:56:29;;;;;;;;;;;;;;;19.58;42.47;100205.19;5071518;28;19915;-75
2023/03/31 00:58:56;;;;;;;;;;;;;;;19.56;42.36;100199.16;5070397;28;19947;-73
2023/03/31 01:01:23;;;;;;;;;;;;;;;19.54;42.68;100199.38;5072002;28;19920;-74
2023/03/31 01:03:48;;;;;;;;;;;;;;;19.53;42.65;100197.69;5067351;28;19909;-74
2023/03/31 01:06:14;;;;;;;;;;;;;;;19.53;42.75;100194.16;5050898;28;20011;-73
2023/03/31 01:08:39;;;;;;;;;;;;;;;19.52;42.53;100179.84;5055728;28;19916;-74
2023/03/31 01:11:08;;;;;;;;;;;;;;;19.52;42.52;100181.69;5072577;28;19948;-74
2023/03/31 01:13:33;;;;;;;;;;;;;;;19.52;42.63;100173.59;5065878;28;19910;-75
2023/03/31 01:15:59;;;;;;;;;;;;;;;19.50;42.70;100171.13;5051009;28;19916;-73
2023/03/31 01:18:24;;;;;;;;;;;;;;;19.49;42.47;100167.56;5070827;28;19909;-75
2023/03/31 01:21:08;;;;;;;;;;;;;;;19.48;42.56;100159.66;5055036;28;19920;-74
2023/03/31 01:23:52;;;;;;;;;;;;;;;19.47;42.61;100147.22;5054109;28;19921;-73
2023/03/31 01:26:37;;;;;;;;;;;;;;;19.47;42.72;100149.91;5050955;28;19909;-73
2023/03/31 01:29:02;;;;;;;;;;;;;;;19.46;42.63;100134.78;5056262;28;19947;-74
2023/03/31 01:31:30;;;;;;;;;;;;;;;19.46;42.69;100134.78;5050834;28;19931;-74
2023/03/31 01:34:01;;;;;;;;;;;;;;;19.43;42.60;100130.59;5053074;28;19908;-74
2023/03/31 01:36:26;;;;;;;;;;;;;;;19.43;42.70;100130.59;5050926;28;19947;-74
2023/03/31 01:38:52;;;;;;;;;;;;;;;19.43;42.86;100133.28;5053848;28;19908;-74
2023/03/31 01:41:17;;;;;;;;;;;;;;;19.42;42.75;100120.84;5048869;28;19912;-74
2023/03/31 01:43:44;;;;;;;;;;;;;;;19.41;42.74;100119.19;5052478;28;20393;-74
2023/03/31 01:46:30;;;;;;;;;;;;;;;19.39;42.76;100107.72;5066077;28;19965;-73
2023/03/31 01:48:58;;;;;;;;;;;;;;;19.40;42.82;100098.63;5052024;28;19908;-74
2023/03/31 01:51:41;;;;;;;;;;;;;;;19.38;42.80;100098.00;5053112;28;19916;-76
2023/03/31 01:54:25;;;;;;;;;;;;;;;19.38;42.77;100092.59;5065572;28;19919;-74
2023/03/31 01:56:57;;;;;;;;;;;;;;;19.36;42.78;100086.53;5053412;28;19920;-73
2023/03/31 01:59:26;;;;;;;;;;;;;;;19.35;43.00;100084.88;5065405;28;19913;-74
2023/03/31 02:02:20;;;;;;;;;;;;;;;19.34;42.65;100077.81;5068299;28;19920;-73
2023/03/31 02:04:47;;;;;;;;;;;;;;;19.34;42.95;100074.31;5051860;28;20301;-74
2023/03/31 02:07:17;;;;;;;;;;;;;;;19.33;42.96;100062.69;5051038;28;19963;-74
2023/03/31 02:09:44;;;;;;;;;;;;;;;19.33;43.14;100065.38;5069700;28;19988;-74
2023/03/31 02:12:10;;;;;;;;;;;;;;;19.32;43.03;100055.59;5066824;28;20007;-73
2023/03/31 02:14:36;;;;;;;;;;;;;;;19.32;42.97;100052.09;5067906;28;19908;-73
2023/03/31 02:17:02;;;;;;;;;;;;;;;19.31;43.02;100053.94;5062876;28;19920;-74
2023/03/31 02:19:30;;;;;;;;;;;;;;;19.30;42.87;100056.84;5053967;28;19917;-74
2023/03/31 02:21:55;;;;;;;;;;;;;;;19.29;42.85;100042.53;5064080;28;19963;-74
2023/03/31 02:24:22;;;;;;;;;;;;;;;19.28;43.13;100034.63;5048893;28;19935;-74
2023/03/31 02:27:00;;;;;;;;;;;;;;;19.27;43.12;100022.19;5049902;28;19983;-73
2023/03/31 02:29:25;;;;;;;;;;;;;;;19.27;43.05;100022.19;5054509;28;19916;-76
2023/03/31 02:32:02;;;;;;;;;;;;;;;19.27;43.05;100008.72;5048046;28;20278;-74
2023/03/31 02:34:28;;;;;;;;;;;;;;;19.26;42.96;100001.66;5055317;28;19909;-75
2023/03/31 02:36:53;;;;;;;;;;;;;;;19.25;43.16;99992.75;5056338;28;20318;-73
2023/03/31 02:39:19;;;;;;;;;;;;;;;19.24;43.17;99991.06;5059442;28;19932;-75
2023/03/31 02:41:44;;;;;;;;;;;;;;;19.22;43.25;99983.16;5064159;28;19913;-75
2023/03/31 02:44:10;;;;;;;;;;;;;;;19.22;43.17;99974.25;5067789;28;20394;-75
2023/03/31 02:46:35;;;;;;;;;;;;;;;19.21;43.21;99970.72;5070945;28;19979;-75
2023/03/31 02:49:01;;;;;;;;;;;;;;;19.21;43.49;99968.03;5053257;28;19912;-74
2023/03/31 02:51:31;;;;;;;;;;;;;;;19.21;42.99;99967.22;5047869;28;19985;-74
2023/03/31 02:54:19;;;;;;;;;;;;;;;19.20;42.94;99960.97;5062356;28;19909;-74
2023/03/31 02:56:53;;;;;;;;;;;;;;;19.20;43.33;99952.06;5056660;28;19952;-74
2023/03/31 02:59:31;;;;;;;;;;;;;;;19.18;43.03;99937.94;5051277;28;19951;-74
2023/03/31 03:01:59;;;;;;;;;;;;;;;19.17;43.13;99937.09;5058233;28;20420;-75
2023/03/31 03:04:35;;;;;;;;;;;;;;;19.18;42.94;99928.00;5059458;28;19915;-75
2023/03/31 03:07:16;;;;;;;;;;;;;;;19.16;43.11;99919.28;5053112;28;19968;-74
2023/03/31 03:09:41;;;;;;;;;;;;;;;19.15;43.08;99916.75;5062667;28;19928;-73
2023/03/31 03:12:07;;;;;;;;;;;;;;;19.15;43.21;99900.59;5052144;28;19917;-73
2023/03/31 03:14:48;;;;;;;;;;;;;;;19.14;43.28;99907.03;5072207;28;19935;-74
2023/03/31 03:17:26;;;;;;;;;;;;;;;19.13;43.11;99895.41;5050640;28;19908;-74
2023/03/31 03:19:52;;;;;;;;;;;;;;;19.13;43.11;99887.34;5064665;28;20399;-73
2023/03/31 03:22:17;;;;;;;;;;;;;;;19.12;43.17;99882.97;5070891;28;20445;-74
2023/03/31 03:24:43;;;;;;;;;;;;;;;19.11;43.20;99875.91;5069171;28;19913;-74
2023/03/31 03:27:08;;;;;;;;;;;;;;;19.11;43.16;99870.50;5063774;28;19915;-75
2023/03/31 03:29:33;;;;;;;;;;;;;;;19.10;43.18;99862.63;5068976;28;19957;-74
2023/03/31 03:31:59;;;;;;;;;;;;;;;19.10;43.25;99851.84;5074396;28;19909;-75
2023/03/31 03:34:24;;;;;;;;;;;;;;;19.10;43.17;99854.56;5059118;28;20023;-74
2023/03/31 03:36:50;;;;;;;;;;;;;;;19.09;43.20;99848.34;5055001;28;19996;-73
2023/03/31 03:39:15;;;;;;;;;;;;;;;19.09;43.46;99844.81;5054243;28;19913;-74
2023/03/31 03:41:41;;;;;;;;;;;;;;;19.08;43.24;99841.28;5058337;28;19919;-74
2023/03/31 03:44:06;;;;;;;;;;;;;;;19.07;43.42;99839.59;5056375;28;19913;-75
2023/03/31 03:46:31;;;;;;;;;;;;;;;19.07;43.45;99831.50;5055293;28;19909;-75
2023/03/31 03:48:56;;;;;;;;;;;;;;;19.07;43.21;99828.00;5053831;28;20286;-75
2023/03/31 03:51:22;;;;;;;;;;;;;;;19.06;43.66;99823.66;5074030;28;20327;-74
2023/03/31 03:53:47;;;;;;;;;;;;;;;19.06;43.22;99820.94;5054470;28;19936;-74
2023/03/31 03:56:12;;;;;;;;;;;;;;;19.05;43.17;99822.81;5056951;28;19909;-74
2023/03/31 03:58:37;;;;;;;;;;;;;;;19.05;43.32;99820.13;5053723;28;19916;-74
2023/03/31 04:01:03;;;;;;;;;;;;;;;19.06;43.48;99818.25;5057809;28;19917;-73
2023/03/31 04:03:28;;;;;;;;;;;;;;;19.05;43.29;99811.22;5051194;28;19959;-75
2023/03/31 04:05:53;;;;;;;;;;;;;;;19.05;43.32;99798.56;5059312;28;19948;-74
2023/03/31 04:08:19;;;;;;;;;;;;;;;19.03;43.56;99792.56;5052234;28;19924;-74
2023/03/31 04:10:45;;;;;;;;;;;;;;;19.04;43.42;99788.81;5058103;28;19913;-74
2023/03/31 04:13:10;;;;;;;;;;;;;;;19.04;43.27;99785.31;5041991;28;19951;-74
2023/03/31 04:15:35;;;;;;;;;;;;;;;19.04;43.36;99774.53;5058085;28;19913;-74
2023/03/31 04:18:01;;;;;;;;;;;;;;;19.04;43.28;99769.13;5055324;28;19960;-75
2023/03/31 04:20:29;;;;;;;;;;;;;;;19.03;43.46;99772.84;5055966;28;19913;-74
2023/03/31 04:22:54;;;;;;;;;;;;;;;19.05;43.18;99765.41;5056011;28;19909;-75
2023/03/31 04:25:21;;;;;;;;;;;;;;;19.04;43.46;99758.38;5058552;28;20086;-75
2023/03/31 04:27:53;;;;;;;;;;;;;;;19.04;43.45;99753.81;5060980;28;19931;-75
2023/03/31 04:30:22;;;;;;;;;;;;;;;19.05;43.14;99751.94;5057458;28;19909;-75
2023/03/31 04:32:49;;;;;;;;;;;;;;;19.03;43.42;99740.50;5061779;28;19959;-74
2023/03/31 04:35:16;;;;;;;;;;;;;;;19.04;43.36;99726.03;5056403;28;19944;-75
2023/03/31 04:37:41;;;;;;;;;;;;;;;19.03;43.51;99725.22;5054683;28;19909;-75
2023/03/31 04:40:07;;;;;;;;;;;;;;;19.03;43.30;99724.34;5054203;28;19939;-75
2023/03/31 04:42:33;;;;;;;;;;;;;;;19.05;43.27;99723.13;5056264;28;19915;-77
2023/03/31 04:44:58;;;;;;;;;;;;;;;19.04;43.45;99718.78;5050858;28;19932;-75
2023/03/31 04:47:23;;;;;;;;;;;;;;;19.06;43.22;99715.88;5061187;28;19923;-76
2023/03/31 04:49:48;;;;;;;;;;;;;;;19.05;43.33;99709.66;5058424;28;20436;-75
2023/03/31 04:52:13;;;;;;;;;;;;;;;19.07;43.55;99704.91;5057686;28;19909;-75
2023/03/31 04:54:38;;;;;;;;;;;;;;;19.08;43.42;99692.28;5051192;28;19913;-74
2023/03/31 04:57:04;;;;;;;;;;;;;;;19.10;43.57;99695.59;5053712;28;19951;-78
2023/03/31 04:59:29;;;;;;;;;;;;;;;19.10;43.46;99680.25;5059869;28;19909;-77
2023/03/31 05:01:54;;;;;;;;;;;;;;;19.12;43.42;99661.22;5055621;28;20317;-75
2023/03/31 05:04:20;;;;;;;;;;;;;;;19.11;43.58;99660.34;5056147;28;19997;-76
2023/03/31 05:06:45;;;;;;;;;;;;;;;19.14;43.50;99657.28;5054148;28;19912;-73
2023/03/31 05:09:10;;;;;;;;;;;;;;;19.15;43.47;99648.16;5057076;28;19959;-73
2023/03/31 05:11:35;;;;;;;;;;;;;;;19.17;43.26;99647.97;5070135;28;19980;-74
2023/03/31 05:14:00;;;;;;;;;;;;;;;19.18;43.41;99638.84;5064554;28;19924;-75
2023/03/31 05:16:26;;;;;;;;;;;;;;;19.19;43.37;99630.56;5057238;28;19916;-74
2023/03/31 05:18:51;;;;;;;;;;;;;;;19.24;43.29;99627.25;5073713;28;20017;-75
2023/03/31 05:21:17;;;;;;;;;;;;;;;19.26;43.64;99614.44;5068087;28;20011;-77
2023/03/31 05:23:42;;;;;;;;;;;;;;;19.28;44.00;99606.94;5066205;28;20274;-77
2023/03/31 05:26:08;;;;;;;;;;;;;;;19.29;43.88;99592.47;5051559;28;19908;-76
2023/03/31 05:28:34;;;;;;;;;;;;;;;19.31;44.15;99598.47;5071739;28;19916;-76
2023/03/31 05:31:00;;;;;;;;;;;;;;;19.33;44.22;99585.63;5050895;28;19909;-77
2023/03/31 05:33:26;;;;;;;;;;;;;;;19.35;43.92;99583.56;5065910;28;19967;-76
2023/03/31 05:35:51;;;;;;;;;;;;;;;19.39;44.11;99584.00;5074141;28;19908;-75
2023/03/31 05:38:16;;;;;;;;;;;;;;;19.40;44.08;99578.38;5057772;28;19933;-76
2023/03/31 05:40:41;;;;;;;;;;;;;;;19.41;44.03;99569.28;5060311;28;20378;-75
2023/03/31 05:43:06;;;;;;;;;;;;;;;19.44;43.88;99576.94;5057866;28;19912;-74
2023/03/31 05:45:32;;;;;;;;;;;;;;;19.46;44.07;99569.50;5069959;28;19913;-76
2023/03/31 05:47:57;;;;;;;;;;;;;;;19.48;43.94;99562.03;5054799;28;19913;-75
2023/03/31 05:50:22;;;;;;;;;;;;;;;19.50;44.28;99561.84;5054109;28;19948;-77
2023/03/31 05:52:47;;;;;;;;;;;;;;;19.52;44.08;99558.91;5059973;28;19913;-77
2023/03/31 05:55:12;;;;;;;;;;;;;;;19.55;44.00;99555.81;5058209;28;19912;-77
2023/03/31 05:57:37;;;;;;;;;;;;;;;19.56;43.90;99549.38;5051206;28;20346;-75
2023/03/31 06:00:05;;;;;;;;;;;;;;;19.58;43.71;99539.22;5052056;28;19916;-77
2023/03/31 06:02:31;;;;;;;;;;;;;;;19.59;43.84;99548.97;5065860;28;20009;-77
2023/03/31 06:04:56;;;;;;;;;;;;;;;19.61;43.82;99538.84;5060228;28;19913;-75
2023/03/31 06:07:23;;;;;;;;;;;;;;;19.62;43.76;99527.00;5067743;28;19932;-74
2023/03/31 06:09:49;;;;;;;;;;;;;;;19.65;43.99;99523.91;5052538;28;19938;-76
2023/03/31 06:12:14;;;;;;;;;;;;;;;19.66;43.90;99526.38;5046484;28;19936;-75
2023/03/31 06:14:40;;;;;;;;;;;;;;;19.69;43.89;99528.69;5054455;28;19912;-76
2023/03/31 06:17:05;;;;;;;;;;;;;;;19.71;43.90;99515.00;5058223;28;19916;-75
2023/03/31 06:19:30;;;;;;;;;;;;;;;19.72;43.89;99516.66;5060605;28;19916;-74
2023/03/31 06:21:55;;;;;;;;;;;;;;;19.75;43.92;99518.09;5059567;28;19913;-79
2023/03/31 06:24:20;;;;;;;;;;;;;;;19.77;43.55;99505.25;5058743;28;19987;-79
2023/03/31 06:26:46;;;;;;;;;;;;;;;19.78;43.61;99502.34;5068196;28;19909;-79
2023/03/31 06:29:11;;;;;;;;;;;;;;;19.79;43.77;99503.97;5059824;28;19935;-79
2023/03/31 06:31:36;;;;;;;;;;;;;;;19.81;43.60;99493.00;5055677;28;19952;-79
2023/03/31 06:34:01;;;;;;;;;;;;;;;19.82;43.38;99491.97;5062801;28;19917;-79
2023/03/31 06:36:26;;;;;;;;;;;;;;;19.83;43.58;99489.03;5057914;28;19909;-79
2023/03/31 06:38:52;;;;;;;;;;;;;;;19.85;43.30;99495.06;5059072;28;20361;-80
2023/03/31 06:41:19;;;;;;;;;;;;;;;19.86;43.51;99496.72;5057323;28;19923;-79
2023/03/31 06:43:45;;;;;;;;;;;;;;;19.88;43.40;99489.28;5061213;28;19936;-76
2023/03/31 06:46:10;;;;;;;;;;;;;;;19.90;43.42;99486.34;5055642;28;19920;-79
2023/03/31 06:48:36;;;;;;;;;;;;;;;19.91;43.20;99480.75;5069836;28;19959;-78
2023/03/31 06:51:02;;;;;;;;;;;;;;;19.92;43.24;99487.81;5060282;28;19920;-87
2023/03/31 06:53:27;;;;;;;;;;;;;;;19.94;43.13;99482.19;5052731;28;19915;-86
2023/03/31 06:55:52;;;;;;;;;;;;;;;19.96;42.93;99474.72;5070537;28;19909;-84
2023/03/31 06:58:18;;;;;;;;;;;;;;;19.97;43.15;99479.91;5064249;28;19920;-86
2023/03/31 07:00:44;;;;;;;;;;;;;;;20.00;43.17;99472.44;5053231;28;19919;-84
2023/03/31 07:03:10;;;;;;;;;;;;;;;20.00;43.21;99464.34;5053482;28;19937;-76
2023/03/31 07:05:35;;;;;;;;;;;;;;;20.00;42.92;99470.56;5055339;28;19912;-75
2023/03/31 07:08:00;;;;;;;;;;;;;;;20.02;42.87;99463.09;5057909;28;19921;-76
2023/03/31 07:10:27;;;;;;;;;;;;;;;20.03;43.15;99459.34;5058809;28;20003;-76
2023/03/31 07:12:52;;;;;;;;;;;;;;;20.05;42.99;99462.69;5057265;28;19920;-77
2023/03/31 07:15:17;;;;;;;;;;;;;;;20.08;42.89;99456.00;5056120;28;19962;-76
2023/03/31 07:17:42;;;;;;;;;;;;;;;20.09;42.98;99453.13;5068905;28;20384;-78
2023/03/31 07:20:11;;;;;;;;;;;;;;;20.11;42.86;99453.72;5060156;28;19964;-77
2023/03/31 07:22:37;;;;;;;;;;;;;;;20.14;42.80;99452.50;5055500;28;20039;-76
2023/03/31 07:25:02;;;;;;;;;;;;;;;20.15;42.83;99459.53;5059686;28;19916;-76
2023/03/31 07:27:27;;;;;;;;;;;;;;;20.17;42.74;99447.47;5056700;28;19913;-77
2023/03/31 07:29:52;;;;;;;;;;;;;;;20.19;42.74;99444.56;5058101;28;19940;-80
2023/03/31 07:32:17;;;;;;;;;;;;;;;20.21;42.88;99445.19;5054828;28;19916;-77
2023/03/31 07:34:43;;;;;;;;;;;;;;;20.22;42.75;99442.28;5058646;28;19917;-87
2023/03/31 07:37:08;;;;;;;;;;;;;;;20.25;42.60;99442.88;5051044;28;19916;-77
2023/03/31 07:39:35;;;;;;;;;;;;;;;20.27;42.79;99440.81;5058505;28;19923;-79
2023/03/31 07:42:00;;;;;;;;;;;;;;;20.30;42.77;99443.91;5054400;28;19917;-75
2023/03/31 07:44:25;;;;;;;;;;;;;;;20.31;42.67;99433.97;5063033;28;20467;-75
2023/03/31 07:46:51;;;;;;;;;;;;;;;20.34;42.86;99439.72;5059516;28;19990;-75
2023/03/31 07:49:16;;;;;;;;;;;;;;;20.36;42.96;99437.66;5056196;28;19916;-76
2023/03/31 07:51:41;;;;;;;;;;;;;;;20.38;42.70;99440.13;5057834;28;19974;-74
2023/03/31 07:54:06;;;;;;;;;;;;;;;20.38;42.83;99434.75;5054007;28;19916;-74
2023/03/31 07:56:32;;;;;;;;;;;;;;;20.39;42.51;99436.38;5057681;28;19909;-74
2023/03/31 07:58:57;;;;;;;;;;;;;;;20.40;42.59;99429.97;5055598;28;19944;-75
2023/03/31 08:01:24;;;;;;;;;;;;;;;20.40;42.87;99428.09;5054445;28;19964;-73
2023/03/31 08:03:51;;;;;;;;;;;;;;;20.42;42.95;99425.16;5050487;28;19913;-75
2023/03/31 08:06:20;;;;;;;;;;;;;;;20.43;42.83;99427.69;5065898;28;20429;-74
2023/03/31 08:08:46;;;;;;;;;;;;;;;20.44;42.66;99417.69;5049751;28;19924;-74
2023/03/31 08:11:11;;;;;;;;;;;;;;;20.44;42.47;99417.69;5054807;28;19916;-74
2023/03/31 08:13:36;;;;;;;;;;;;;;;20.45;42.82;99422.06;5053246;28;19913;-74
2023/03/31 08:16:02;;;;;;;;;;;;;;;19.57;42.30;99297.63;5051133;28;20341;-74
2023/03/31 08:18:27;;;;;;;;;;;;;;;20.44;42.78;99429.31;5055463;28;19929;-75
2023/03/31 08:20:52;;;;;;;;;;;;;;;20.45;42.59;99413.94;5068241;28;20285;-74
2023/03/31 08:23:17;;;;;;;;;;;;;;;20.44;42.66;99402.31;5057533;28;20285;-75
2023/03/31 08:25:42;;;;;;;;;;;;;;;20.44;42.49;99407.72;5065016;28;19952;-73
2023/03/31 08:28:12;;;;;;;;;;;;;;;20.46;42.36;99399.41;5061134;28;19913;-75
2023/03/31 08:30:38;;;;;;;;;;;;;;;20.44;42.41;99406.91;5059376;28;19919;-76
2023/03/31 08:33:03;;;;;;;;;;;;;;;20.45;42.60;99408.56;5059455;28;19958;-77
2023/03/31 08:35:28;;;;;;;;;;;;;;;20.45;42.72;99400.44;5054634;28;19909;-77
2023/03/31 08:37:53;;;;;;;;;;;;;;;20.45;42.65;99398.56;5052877;28;19913;-74
2023/03/31 08:40:20;;;;;;;;;;;;;;;20.47;42.67;99407.31;5059755;28;20297;-77
2023/03/31 08:42:48;;;;;;;;;;;;;;;20.47;42.56;99401.91;5069649;28;20427;-75
2023/03/31 08:45:36;;;;;;;;;;;;;;;20.47;42.92;99399.22;5074633;28;19920;-74
2023/03/31 08:48:24;;;;;;;;;;;;;;;20.47;42.97;99404.59;5059950;28;20291;-75
2023/03/31 08:50:50;;;;;;;;;;;;;;;20.47;42.81;99398.34;5054356;28;19921;-75
2023/03/31 08:53:19;;;;;;;;;;;;;;;20.47;42.62;99388.41;5067992;28;19921;-76
2023/03/31 08:55:48;;;;;;;;;;;;;;;20.50;42.86;99394.44;5060366;28;19923;-76
2023/03/31 08:58:19;;;;;;;;;;;;;;;20.50;42.91;99395.25;5071553;28;19973;-75
2023/03/31 09:00:53;;;;;;;;;;;;;;;20.51;42.66;99399.59;5067190;28;20394;-77
2023/03/31 09:03:21;;;;;;;;;;;;;;;20.51;42.79;99404.19;5051709;28;19919;-76
2023/03/31 09:05:57;;;;;;;;;;;;;;;20.51;42.56;99401.47;5054387;28;20003;-76
2023/03/31 09:08:38;;;;;;;;;;;;;;;20.50;43.03;99395.25;5074799;28;19928;-77
2023/03/31 09:11:05;;;;;;;;;;;;;;;20.50;42.73;99395.25;5051803;28;19940;-75
2023/03/31 09:13:39;;;;;;;;;;;;;;;20.50;42.99;99386.34;5050923;28;19924;-77
2023/03/31 09:16:09;;;;;;;;;;;;;;;20.49;42.72;99377.41;5061704;28;20874;-76
2023/03/31 09:18:34;;;;;;;;;;;;;;;20.50;42.74;99375.53;5054699;28;19924;-75
2023/03/31 09:21:03;;;;;;;;;;;;;;;20.49;42.72;99376.59;5062956;28;19917;-75
2023/03/31 09:23:38;;;;;;;;;;;;;;;20.49;43.08;99379.28;5059951;28;20384;-76
2023/03/31 09:26:03;;;;;;;;;;;;;;;20.49;42.82;99373.88;5055205;28;19913;-76
2023/03/31 09:28:30;;;;;;;;;;;;;;;20.49;42.73;99365.78;5054309;28;20396;-76
2023/03/31 09:30:55;;;;;;;;;;;;;;;20.47;42.94;99364.09;5067185;28;19931;-77
2023/03/31 09:33:30;;;;;;;;;;;;;;;20.47;43.06;99358.72;5055931;28;19943;-78
2023/03/31 09:35:57;;;;;;;;;;;;;;;20.47;42.96;99363.25;5058482;28;19913;-78
2023/03/31 09:38:22;;;;;;;;;;;;;;;20.46;43.18;99365.13;5068314;28;19944;-78
2023/03/31 09:40:47;;;;;;;;;;;;;;;20.45;42.98;99357.25;5065645;28;19916;-76
2023/03/31 09:43:20;;;;;;;;;;;;;;;20.46;43.00;99354.31;5056163;28;19940;-75
2023/03/31 09:45:46;;;;;;;;;;;;;;;20.47;42.98;99352.44;5070910;28;19952;-76
2023/03/31 09:48:13;;;;;;;;;;;;;;;20.00;43.11;99268.22;5053295;28;19939;-76
2023/03/31 09:50:42;;;;;;;;;;;;;;;20.48;43.20;99343.38;5049013;28;19919;-77
2023/03/31 09:53:10;;;;;;;;;;;;;;;20.49;43.09;99334.22;5051266;28;20015;-76
2023/03/31 09:55:41;;;;;;;;;;;;;;;20.49;43.04;99342.31;5069016;28;19905;-76
2023/03/31 09:58:07;;;;;;;;;;;;;;;20.52;42.83;99350.00;5057173;28;19919;-76
2023/03/31 10:00:32;;;;;;;;;;;;;;;20.54;42.78;99342.47;5066669;28;20007;-75
2023/03/31 10:03:00;;;;;;;;;;;;;;;20.57;42.87;99335.84;5058164;28;19940;-75
2023/03/31 10:05:29;;;;;;;;;;;;;;;20.59;42.90;99334.56;5067171;28;19944;-76
2023/03/31 10:08:11;;;;;;;;;;;;;;;20.59;43.00;99329.16;5050905;28;19956;-77
2023/03/31 10:10:36;;;;;;;;;;;;;;;20.62;42.74;99333.31;5048919;28;19909;-78
2023/03/31 10:13:01;;;;;;;;;;;;;;;20.62;43.01;99320.63;5055913;28;19951;-76
2023/03/31 10:15:27;;;;;;;;;;;;;;;20.65;42.84;99322.91;5063806;28;19935;-81
2023/03/31 10:17:54;;;;;;;;;;;;;;;20.66;42.76;99315.63;5056163;28;20012;-77
2023/03/31 10:20:40;;;;;;;;;;;;;;;20.68;42.98;99319.75;5042668;28;19963;-81
2023/03/31 10:23:06;;;;;;;;;;;;;;;20.71;43.17;99316.59;5055858;28;19914;-74
2023/03/31 10:25:31;;;;;;;;;;;;;;;20.74;43.16;99320.75;5068341;28;19948;-81
2023/03/31 10:27:56;;;;;;;;;;;;;;;20.76;43.07;99315.94;5066652;28;19930;-76
2023/03/31 10:30:22;;;;;;;;;;;;;;;20.79;42.84;99317.41;5065670;28;19912;-76
2023/03/31 10:32:48;;;;;;;;;;;;;;;20.82;42.80;99319.66;5047645;28;19916;-77
2023/03/31 10:35:32;;;;;;;;;;;;;;;20.83;43.09;99307.81;5067793;28;19916;-78
2023/03/31 10:37:58;;;;;;;;;;;;;;;20.87;42.82;99307.16;5048771;28;19909;-76
2023/03/31 10:40:25;;;;;;;;;;;;;;;20.90;43.16;99304.00;5049408;28;19916;-79
2023/03/31 10:42:57;;;;;;;;;;;;;;;20.91;43.12;99300.25;5051491;28;19912;-78
2023/03/31 10:45:23;;;;;;;;;;;;;;;20.95;42.86;99301.47;5054947;28;19913;-75
2023/03/31 10:47:49;;;;;;;;;;;;;;;20.98;42.85;99289.38;5049032;28;19972;-75
2023/03/31 10:50:15;;;;;;;;;;;;;;;21.00;42.92;99299.97;5070594;28;19916;-84
2023/03/31 10:52:47;;;;;;;;;;;;;;;21.02;43.10;99292.47;5068003;28;19913;-82
2023/03/31 10:55:13;;;;;;;;;;;;;;;21.05;43.01;99294.72;5052059;28;19942;-78
2023/03/31 10:57:57;;;;;;;;;;;;;;;21.08;42.97;99297.00;5068857;28;19913;-79
2023/03/31 11:00:31;;;;;;;;;;;;;;;21.10;42.85;99294.88;5065937;28;19917;-74
2023/03/31 11:03:08;;;;;;;;;;;;;;;21.14;43.08;99285.28;5056486;28;19909;-75
2023/03/31 11:05:42;;;;;;;;;;;;;;;21.19;42.74;99290.84;5074035;28;20377;-73
2023/03/31 11:08:10;;;;;;;;;;;;;;;21.22;42.83;99295.81;5062117;28;19924;-74
2023/03/31 11:10:39;;;;;;;;;;;;;;;21.26;42.98;99288.91;5058878;28;19915;-75
2023/03/31 11:13:13;;;;;;;;;;;;;;;21.30;42.88;99282.00;5059646;28;19920;-73
2023/03/31 11:15:38;;;;;;;;;;;;;;;21.38;42.67;99280.94;5050621;28;19914;-75
2023/03/31 11:18:23;;;;;;;;;;;;;;;21.42;42.36;99280.25;5048061;28;19915;-73
2023/03/31 11:20:51;;;;;;;;;;;;;;;21.48;42.17;99275.00;5059185;28;20492;-73
2023/03/31 11:23:20;;;;;;;;;;;;;;;21.48;42.11;99269.59;5055720;28;19913;-73
2023/03/31 11:25:55;;;;;;;;;;;;;;;21.48;42.24;99267.69;5064004;28;19941;-73
2023/03/31 11:28:39;;;;;;;;;;;;;;;21.49;42.14;99274.75;5058068;28;19919;-74
2023/03/31 11:31:23;;;;;;;;;;;;;;;21.49;41.96;99263.13;5055670;28;19913;-73
2023/03/31 11:34:07;;;;;;;;;;;;;;;21.51;42.08;99272.66;5067044;28;20328;-74
2023/03/31 11:36:57;;;;;;;;;;;;;;;21.50;42.14;99260.22;5059514;28;19924;-72
2023/03/31 11:39:41;;;;;;;;;;;;;;;21.51;42.13;99255.63;5070530;28;19917;-72
2023/03/31 11:42:11;;;;;;;;;;;;;;;21.54;42.06;99261.41;5051838;28;19920;-72
2023/03/31 11:44:41;;;;;;;;;;;;;;;21.56;42.14;99258.47;5064392;28;19913;-74
2023/03/31 11:47:12;;;;;;;;;;;;;;;21.56;42.01;99259.28;5052876;28;19913;-73
2023/03/31 11:49:38;;;;;;;;;;;;;;;21.56;42.09;99256.59;5071314;28;19909;-74
2023/03/31 12:35:47;;;;;;;;;;;;;;;21.57;42.30;99216.84;5930156;23;20758;-73
2023/03/31 12:38:30;;;;;;;;;;;;;;;21.59;42.21;99210.16;4962729;28;19965;-74
2023/03/31 12:40:56;;;;;;;;;;;;;;;21.64;42.06;99207.59;4959939;28;20140;-75
2023/03/31 12:43:27;;;;;;;;;;;;;;;21.68;42.16;99211.50;4969808;28;19925;-74
2023/03/31 12:46:16;;;;;;;;;;;;;;;21.74;42.14;99214.34;4969893;28;19911;-75
2023/03/31 12:49:00;;;;;;;;;;;;;;;21.76;41.85;99212.25;4977680;28;19922;-80
2023/03/31 12:51:44;;;;;;;;;;;;;;;21.76;41.84;99215.78;4966427;28;19910;-83
2023/03/31 12:54:19;;;;;;;;;;;;;;;21.76;42.13;99214.94;4970169;28;19914;-73
2023/03/31 12:57:00;;;;;;;;;;;;;;;21.77;42.12;99212.00;4970017;28;19945;-73
2023/03/31 12:59:55;;;;;;;;;;;;;;;21.77;42.08;99209.31;4965953;28;19910;-72
2023/03/31 13:02:21;;;;;;;;;;;;;;;21.75;41.88;99200.59;4963848;28;20330;-73
2023/03/31 13:04:49;;;;;;;;;;;;;;;21.76;42.00;99198.72;4972480;28;19918;-72
2023/03/31 13:07:26;;;;;;;;;;;;;;;21.74;42.10;99201.63;4970077;28;19914;-73
2023/03/31 13:09:55;;;;;;;;;;;;;;;21.74;42.01;99196.22;4969715;28;19914;-73
2023/03/31 13:12:21;;;;;;;;;;;;;;;21.74;42.03;99200.81;4964662;28;20000;-73
2023/03/31 13:14:48;;;;;;;;;;;;;;;21.74;41.88;99195.41;4973756;28;19960;-73
2023/03/31 13:17:19;;;;;;;;;;;;;;;21.72;42.08;99190.22;4963737;28;19965;-74
2023/03/31 13:19:46;;;;;;;;;;;;;;;21.71;42.34;99196.72;4966507;28;19941;-74
2023/03/31 13:22:31;;;;;;;;;;;;;;;21.69;42.55;99188.81;4971834;28;20274;-76
2023/03/31 13:25:15;;;;;;;;;;;;;;;21.70;42.44;99200.44;4970952;28;19922;-75
2023/03/31 13:27:47;;;;;;;;;;;;;;;21.69;42.53;99196.09;4963424;28;19937;-74
2023/03/31 13:30:31;;;;;;;;;;;;;;;21.66;42.51;99188.44;4971445;28;19909;-74
2023/03/31 13:33:22;;;;;;;;;;;;;;;21.64;42.34;99195.97;4962498;28;19949;-75
2023/03/31 13:36:06;;;;;;;;;;;;;;;21.62;42.78;99201.59;4970317;28;20282;-74
2023/03/31 13:38:41;;;;;;;;;;;;;;;21.62;42.69;99201.59;4963357;28;19941;-74